sensor_id;sensor_type;location;lat;lon;timestamp;temperature;humidity
1297;DHT22;641;48.492;9.184;2023-02-01T00:00:05;5.50;99.90
1297;DHT22;641;48.492;9.184;2023-02-01T00:02:31;5.40;99.90
1297;DHT22;641;48.492;9.184;2023-02-01T00:04:56;5.40;99.90
1297;DHT22;641;48.492;9.184;2023-02-01T00:07:22;5.40;99.90
1297;DHT22;641;48.492;9.184;2023-02-01T00:09:48;5.30;99.90
1297;DHT22;641;48.492;9.184;2023-02-01T00:12:13;5.20;99.90
1297;DHT22;641;48.492;9.184;2023-02-01T00:14:39;5.20;99.90
1297;DHT22;641;48.492;9.184;2023-02-01T00:17:05;5.10;99.90
1297;DHT22;641;48.492;9.184;2023-02-01T00:19:32;5.20;99.90
1297;DHT22;641;48.492;9.184;2023-02-01T00:21:57;5.20;99.90
1297;DHT22;641;48.492;9.184;2023-02-01T00:24:23;5.40;99.90
1297;DHT22;641;48.492;9.184;2023-02-01T00:26:48;5.30;99.90
1297;DHT22;641;48.492;9.184;2023-02-01T00:29:19;5.30;99.90
1297;DHT22;641;48.492;9.184;2023-02-01T00:31:45;5.30;99.90
1297;DHT22;641;48.492;9.184;2023-02-01T00:34:16;5.30;99.90
1297;DHT22;641;48.492;9.184;2023-02-01T00:36:42;5.40;99.90
1297;DHT22;641;48.492;9.184;2023-02-01T00:39:09;5.30;99.90
1297;DHT22;641;48.492;9.184;2023-02-01T00:41:35;5.30;99.90
1297;DHT22;641;48.492;9.184;2023-02-01T00:44:01;5.40;99.90
1297;DHT22;641;48.492;9.184;2023-02-01T00:46:27;5.40;99.90
1297;DHT22;641;48.492;9.184;2023-02-01T00:48:53;5.30;99.90
1297;DHT22;641;48.492;9.184;2023-02-01T00:51:24;5.30;99.90
1297;DHT22;641;48.492;9.184;2023-02-01T00:53:50;5.20;99.90
1297;DHT22;641;48.492;9.184;2023-02-01T00:56:16;5.40;99.90
1297;DHT22;641;48.492;9.184;2023-02-01T00:58:42;5.50;99.90
1297;DHT22;641;48.492;9.184;2023-02-01T01:01:12;5.40;99.90
1297;DHT22;641;48.492;9.184;2023-02-01T01:03:42;5.30;99.90
1297;DHT22;641;48.492;9.184;2023-02-01T01:06:11;5.10;99.90
1297;DHT22;641;48.492;9.184;2023-02-01T01:08:38;5.30;99.90
1297;DHT22;641;48.492;9.184;2023-02-01T01:11:10;5.20;99.90
1297;DHT22;641;48.492;9.184;2023-02-01T01:13:36;5.30;99.90
1297;DHT22;641;48.492;9.184;2023-02-01T01:16:04;5.20;99.90
1297;DHT22;641;48.492;9.184;2023-02-01T01:18:30;5.30;99.90
1297;DHT22;641;48.492;9.184;2023-02-01T01:20:57;5.40;99.90
1297;DHT22;641;48.492;9.184;2023-02-01T01:23:23;5.50;99.90
1297;DHT22;641;48.492;9.184;2023-02-01T01:25:48;5.40;99.90
1297;DHT22;641;48.492;9.184;2023-02-01T01:28:14;5.30;99.90
1297;DHT22;641;48.492;9.184;2023-02-01T01:30:40;5.40;99.90
1297;DHT22;641;48.492;9.184;2023-02-01T01:33:05;5.50;99.90
1297;DHT22;641;48.492;9.184;2023-02-01T01:35:32;5.30;99.90
1297;DHT22;641;48.492;9.184;2023-02-01T01:37:59;5.40;99.90
1297;DHT22;641;48.492;9.184;2023-02-01T01:40:25;5.20;99.90
1297;DHT22;641;48.492;9.184;2023-02-01T01:42:51;5.30;99.90
1297;DHT22;641;48.492;9.184;2023-02-01T01:47:56;5.50;99.90
1297;DHT22;641;48.492;9.184;2023-02-01T01:50:40;5.50;99.90
1297;DHT22;641;48.492;9.184;2023-02-01T01:53:10;5.40;99.90
1297;DHT22;641;48.492;9.184;2023-02-01T01:55:40;5.40;99.90
1297;DHT22;641;48.492;9.184;2023-02-01T01:58:12;5.50;99.90
1297;DHT22;641;48.492;9.184;2023-02-01T02:00:40;5.60;99.90
1297;DHT22;641;48.492;9.184;2023-02-01T02:03:15;5.40;99.90
1297;DHT22;641;48.492;9.184;2023-02-01T02:05:43;5.50;99.90
1297;DHT22;641;48.492;9.184;2023-02-01T02:08:09;5.50;99.90
1297;DHT22;641;48.492;9.184;2023-02-01T02:10:36;5.60;99.90
1297;DHT22;641;48.492;9.184;2023-02-01T02:13:20;5.30;99.90
1297;DHT22;641;48.492;9.184;2023-02-01T02:21:32;5.40;99.90
1297;DHT22;641;48.492;9.184;2023-02-01T02:33:18;5.60;99.90
1297;DHT22;641;48.492;9.184;2023-02-01T02:36:07;5.60;99.90
1297;DHT22;641;48.492;9.184;2023-02-01T02:38:45;5.60;99.90
1297;DHT22;641;48.492;9.184;2023-02-01T02:41:22;5.80;99.90
1297;DHT22;641;48.492;9.184;2023-02-01T02:47:09;5.80;99.90
1297;DHT22;641;48.492;9.184;2023-02-01T02:50:05;5.90;99.90
1297;DHT22;641;48.492;9.184;2023-02-01T02:53:15;5.80;99.90
1297;DHT22;641;48.492;9.184;2023-02-01T02:56:03;5.70;99.90
1297;DHT22;641;48.492;9.184;2023-02-01T02:58:48;5.50;99.90
1297;DHT22;641;48.492;9.184;2023-02-01T03:01:33;5.50;99.90
1297;DHT22;641;48.492;9.184;2023-02-01T03:04:17;5.50;99.90
1297;DHT22;641;48.492;9.184;2023-02-01T03:06:44;5.60;99.90
1297;DHT22;641;48.492;9.184;2023-02-01T03:09:23;5.50;99.90
1297;DHT22;641;48.492;9.184;2023-02-01T03:11:56;5.30;99.90
1297;DHT22;641;48.492;9.184;2023-02-01T03:14:44;5.50;99.90
1297;DHT22;641;48.492;9.184;2023-02-01T03:17:20;5.60;99.90
1297;DHT22;641;48.492;9.184;2023-02-01T03:19:48;5.40;99.90
1297;DHT22;641;48.492;9.184;2023-02-01T03:22:24;5.50;99.90
1297;DHT22;641;48.492;9.184;2023-02-01T03:24:58;5.70;99.90
1297;DHT22;641;48.492;9.184;2023-02-01T03:27:32;5.50;99.90
1297;DHT22;641;48.492;9.184;2023-02-01T03:32:34;5.40;99.90
1297;DHT22;641;48.492;9.184;2023-02-01T03:35:25;5.50;99.90
1297;DHT22;641;48.492;9.184;2023-02-01T03:37:54;5.60;99.90
1297;DHT22;641;48.492;9.184;2023-02-01T03:40:22;5.60;99.90
1297;DHT22;641;48.492;9.184;2023-02-01T03:42:52;5.70;99.90
1297;DHT22;641;48.492;9.184;2023-02-01T03:45:24;5.60;99.90
1297;DHT22;641;48.492;9.184;2023-02-01T03:47:55;5.50;99.90
1297;DHT22;641;48.492;9.184;2023-02-01T03:50:22;5.60;99.90
1297;DHT22;641;48.492;9.184;2023-02-01T03:53:08;5.50;99.90
1297;DHT22;641;48.492;9.184;2023-02-01T03:55:36;5.50;99.90
1297;DHT22;641;48.492;9.184;2023-02-01T03:58:18;5.60;99.90
1297;DHT22;641;48.492;9.184;2023-02-01T04:00:55;5.60;99.90
1297;DHT22;641;48.492;9.184;2023-02-01T04:03:22;5.60;99.90
1297;DHT22;641;48.492;9.184;2023-02-01T04:05:49;5.40;99.90
1297;DHT22;641;48.492;9.184;2023-02-01T04:08:14;5.40;99.90
1297;DHT22;641;48.492;9.184;2023-02-01T04:10:40;5.50;99.90
1297;DHT22;641;48.492;9.184;2023-02-01T04:13:06;5.30;99.90
1297;DHT22;641;48.492;9.184;2023-02-01T04:15:32;5.40;99.90
1297;DHT22;641;48.492;9.184;2023-02-01T04:17:57;5.50;99.90
1297;DHT22;641;48.492;9.184;2023-02-01T04:20:23;5.50;99.90
1297;DHT22;641;48.492;9.184;2023-02-01T04:22:48;5.50;99.90
1297;DHT22;641;48.492;9.184;2023-02-01T04:25:14;5.30;99.90
1297;DHT22;641;48.492;9.184;2023-02-01T04:27:39;5.10;99.90
1297;DHT22;641;48.492;9.184;2023-02-01T04:30:05;5.20;99.90
1297;DHT22;641;48.492;9.184;2023-02-01T04:32:35;5.30;99.90
1297;DHT22;641;48.492;9.184;2023-02-01T04:35:01;5.20;99.90
1297;DHT22;641;48.492;9.184;2023-02-01T04:37:26;5.20;99.90
1297;DHT22;641;48.492;9.184;2023-02-01T04:39:52;5.20;99.90
1297;DHT22;641;48.492;9.184;2023-02-01T04:42:17;5.10;99.90
1297;DHT22;641;48.492;9.184;2023-02-01T04:44:43;5.00;99.90
1297;DHT22;641;48.492;9.184;2023-02-01T04:47:09;4.80;99.90
1297;DHT22;641;48.492;9.184;2023-02-01T04:49:34;5.00;99.90
1297;DHT22;641;48.492;9.184;2023-02-01T04:52:00;4.90;99.90
1297;DHT22;641;48.492;9.184;2023-02-01T04:54:26;4.90;99.90
1297;DHT22;641;48.492;9.184;2023-02-01T04:56:51;4.90;99.90
1297;DHT22;641;48.492;9.184;2023-02-01T04:59:17;5.00;99.90
1297;DHT22;641;48.492;9.184;2023-02-01T05:01:43;5.20;99.90
1297;DHT22;641;48.492;9.184;2023-02-01T05:04:08;5.10;99.90
1297;DHT22;641;48.492;9.184;2023-02-01T05:06:34;5.30;99.90
1297;DHT22;641;48.492;9.184;2023-02-01T05:08:59;5.20;99.90
1297;DHT22;641;48.492;9.184;2023-02-01T05:11:25;5.20;99.90
1297;DHT22;641;48.492;9.184;2023-02-01T05:14:09;5.40;99.90
1297;DHT22;641;48.492;9.184;2023-02-01T05:16:35;5.50;99.90
1297;DHT22;641;48.492;9.184;2023-02-01T05:19:00;5.40;99.90
1297;DHT22;641;48.492;9.184;2023-02-01T05:21:26;5.70;99.90
1297;DHT22;641;48.492;9.184;2023-02-01T05:23:52;5.50;99.90
1297;DHT22;641;48.492;9.184;2023-02-01T05:26:36;5.60;99.90
1297;DHT22;641;48.492;9.184;2023-02-01T05:29:02;5.40;99.90
1297;DHT22;641;48.492;9.184;2023-02-01T05:31:28;5.30;99.90
1297;DHT22;641;48.492;9.184;2023-02-01T05:33:53;5.50;99.90
1297;DHT22;641;48.492;9.184;2023-02-01T05:36:19;5.50;99.90
1297;DHT22;641;48.492;9.184;2023-02-01T05:38:45;5.50;99.90
1297;DHT22;641;48.492;9.184;2023-02-01T05:41:10;5.50;99.90
1297;DHT22;641;48.492;9.184;2023-02-01T05:43:36;5.60;99.90
1297;DHT22;641;48.492;9.184;2023-02-01T05:46:02;5.60;99.90
1297;DHT22;641;48.492;9.184;2023-02-01T05:48:27;5.60;99.90
1297;DHT22;641;48.492;9.184;2023-02-01T05:50:53;5.40;99.90
1297;DHT22;641;48.492;9.184;2023-02-01T05:53:19;5.50;99.90
1297;DHT22;641;48.492;9.184;2023-02-01T05:55:45;5.50;99.90
1297;DHT22;641;48.492;9.184;2023-02-01T05:58:10;5.50;99.90
1297;DHT22;641;48.492;9.184;2023-02-01T06:03:03;5.40;99.90
1297;DHT22;641;48.492;9.184;2023-02-01T06:05:29;5.40;99.90
1297;DHT22;641;48.492;9.184;2023-02-01T06:07:54;5.30;99.90
1297;DHT22;641;48.492;9.184;2023-02-01T06:10:20;5.50;99.90
1297;DHT22;641;48.492;9.184;2023-02-01T06:22:34;5.40;99.90
1297;DHT22;641;48.492;9.184;2023-02-01T06:25:05;5.60;99.90
1297;DHT22;641;48.492;9.184;2023-02-01T06:27:31;5.60;99.90
1297;DHT22;641;48.492;9.184;2023-02-01T06:29:57;5.60;99.90
1297;DHT22;641;48.492;9.184;2023-02-01T06:32:22;5.50;99.90
1297;DHT22;641;48.492;9.184;2023-02-01T06:39:41;5.50;99.90
1297;DHT22;641;48.492;9.184;2023-02-01T06:42:06;5.70;99.90
1297;DHT22;641;48.492;9.184;2023-02-01T06:44:32;5.20;99.90
1297;DHT22;641;48.492;9.184;2023-02-01T06:46:58;5.20;99.90
1297;DHT22;641;48.492;9.184;2023-02-01T06:49:23;5.20;99.90
1297;DHT22;641;48.492;9.184;2023-02-01T06:51:49;5.20;99.90
1297;DHT22;641;48.492;9.184;2023-02-01T06:54:14;5.10;99.90
1297;DHT22;641;48.492;9.184;2023-02-01T06:56:40;5.20;99.90
1297;DHT22;641;48.492;9.184;2023-02-01T06:59:07;5.20;99.90
1297;DHT22;641;48.492;9.184;2023-02-01T07:01:33;5.30;99.90
1297;DHT22;641;48.492;9.184;2023-02-01T07:03:59;5.60;99.90
1297;DHT22;641;48.492;9.184;2023-02-01T07:06:24;5.50;99.90
1297;DHT22;641;48.492;9.184;2023-02-01T07:08:50;5.70;99.90
1297;DHT22;641;48.492;9.184;2023-02-01T07:11:18;5.40;99.90
1297;DHT22;641;48.492;9.184;2023-02-01T07:13:44;5.50;99.90
1297;DHT22;641;48.492;9.184;2023-02-01T07:16:15;5.50;99.90
1297;DHT22;641;48.492;9.184;2023-02-01T07:18:41;5.20;99.90
1297;DHT22;641;48.492;9.184;2023-02-01T07:21:07;5.30;99.90
1297;DHT22;641;48.492;9.184;2023-02-01T07:26:01;4.90;99.90
1297;DHT22;641;48.492;9.184;2023-02-01T07:28:30;5.30;99.90
1297;DHT22;641;48.492;9.184;2023-02-01T07:31:19;5.20;99.90
1297;DHT22;641;48.492;9.184;2023-02-01T07:33:48;5.20;99.90
1297;DHT22;641;48.492;9.184;2023-02-01T07:36:17;5.30;99.90
1297;DHT22;641;48.492;9.184;2023-02-01T07:38:43;5.40;99.90
1297;DHT22;641;48.492;9.184;2023-02-01T07:41:09;5.20;99.90
1297;DHT22;641;48.492;9.184;2023-02-01T07:43:44;5.30;99.90
1297;DHT22;641;48.492;9.184;2023-02-01T07:46:32;5.40;99.90
1297;DHT22;641;48.492;9.184;2023-02-01T07:49:11;5.50;99.90
1297;DHT22;641;48.492;9.184;2023-02-01T07:51:43;5.50;99.90
1297;DHT22;641;48.492;9.184;2023-02-01T07:54:09;5.60;99.90
1297;DHT22;641;48.492;9.184;2023-02-01T07:56:42;5.40;99.90
1297;DHT22;641;48.492;9.184;2023-02-01T07:59:08;5.40;99.90
1297;DHT22;641;48.492;9.184;2023-02-01T08:01:34;5.40;99.90
1297;DHT22;641;48.492;9.184;2023-02-01T08:04:03;5.70;99.90
1297;DHT22;641;48.492;9.184;2023-02-01T08:10:00;5.50;99.90
1297;DHT22;641;48.492;9.184;2023-02-01T08:12:37;5.70;99.90
1297;DHT22;641;48.492;9.184;2023-02-01T08:15:16;5.90;99.90
1297;DHT22;641;48.492;9.184;2023-02-01T08:17:58;5.80;99.90
1297;DHT22;641;48.492;9.184;2023-02-01T08:20:27;6.00;99.90
1297;DHT22;641;48.492;9.184;2023-02-01T08:23:06;5.70;99.90
1297;DHT22;641;48.492;9.184;2023-02-01T08:25:32;5.90;99.90
1297;DHT22;641;48.492;9.184;2023-02-01T10:26:48;6.10;99.90
1297;DHT22;641;48.492;9.184;2023-02-01T10:29:22;6.10;99.90
1297;DHT22;641;48.492;9.184;2023-02-01T10:31:49;6.30;99.90
1297;DHT22;641;48.492;9.184;2023-02-01T10:34:21;6.20;99.90
1297;DHT22;641;48.492;9.184;2023-02-01T10:36:55;6.20;99.90
1297;DHT22;641;48.492;9.184;2023-02-01T10:39:21;6.10;99.90
1297;DHT22;641;48.492;9.184;2023-02-01T10:41:48;6.30;99.90
1297;DHT22;641;48.492;9.184;2023-02-01T10:44:16;6.50;99.90
1297;DHT22;641;48.492;9.184;2023-02-01T10:46:43;6.90;99.90
1297;DHT22;641;48.492;9.184;2023-02-01T10:49:16;6.70;99.90
1297;DHT22;641;48.492;9.184;2023-02-01T10:54:17;6.10;99.90
1297;DHT22;641;48.492;9.184;2023-02-01T10:56:46;6.20;99.90
1297;DHT22;641;48.492;9.184;2023-02-01T10:59:20;6.20;99.90
1297;DHT22;641;48.492;9.184;2023-02-01T11:01:49;6.00;99.90
1297;DHT22;641;48.492;9.184;2023-02-01T11:04:19;6.40;99.90
1297;DHT22;641;48.492;9.184;2023-02-01T11:07:07;6.70;99.90
1297;DHT22;641;48.492;9.184;2023-02-01T11:09:38;6.40;99.90
1297;DHT22;641;48.492;9.184;2023-02-01T11:12:05;6.50;99.90
1297;DHT22;641;48.492;9.184;2023-02-01T11:14:40;6.40;99.90
1297;DHT22;641;48.492;9.184;2023-02-01T11:19:47;6.40;99.90
1297;DHT22;641;48.492;9.184;2023-02-01T11:22:14;6.80;99.90
1297;DHT22;641;48.492;9.184;2023-02-01T11:24:47;6.80;99.90
1297;DHT22;641;48.492;9.184;2023-02-01T11:27:20;6.80;99.90
1297;DHT22;641;48.492;9.184;2023-02-01T11:29:50;6.80;99.90
1297;DHT22;641;48.492;9.184;2023-02-01T11:32:20;6.90;99.90
1297;DHT22;641;48.492;9.184;2023-02-01T11:35:07;6.70;99.90
1297;DHT22;641;48.492;9.184;2023-02-01T11:37:43;6.60;99.90
1297;DHT22;641;48.492;9.184;2023-02-01T11:40:34;6.40;99.90
1297;DHT22;641;48.492;9.184;2023-02-01T11:45:31;6.20;99.90
1297;DHT22;641;48.492;9.184;2023-02-01T11:47:59;6.30;99.90
1297;DHT22;641;48.492;9.184;2023-02-01T11:50:34;6.30;99.90
1297;DHT22;641;48.492;9.184;2023-02-01T11:56:02;6.50;99.90
1297;DHT22;641;48.492;9.184;2023-02-01T12:01:39;6.30;99.90
1297;DHT22;641;48.492;9.184;2023-02-01T12:07:38;6.40;99.90
1297;DHT22;641;48.492;9.184;2023-02-01T12:22:11;6.60;99.90
1297;DHT22;641;48.492;9.184;2023-02-01T12:30:32;6.50;99.90
1297;DHT22;641;48.492;9.184;2023-02-01T12:36:12;6.40;99.90
1297;DHT22;641;48.492;9.184;2023-02-01T12:44:08;6.50;99.90
1297;DHT22;641;48.492;9.184;2023-02-01T12:47:03;6.20;99.90
1297;DHT22;641;48.492;9.184;2023-02-01T12:52:46;6.60;99.90
1297;DHT22;641;48.492;9.184;2023-02-01T13:01:03;6.70;99.90
1297;DHT22;641;48.492;9.184;2023-02-01T13:03:34;6.60;99.90
1297;DHT22;641;48.492;9.184;2023-02-01T13:06:24;6.50;99.90
1297;DHT22;641;48.492;9.184;2023-02-01T13:09:22;6.50;99.90
1297;DHT22;641;48.492;9.184;2023-02-01T13:11:51;6.20;99.90
1297;DHT22;641;48.492;9.184;2023-02-01T13:16:52;6.50;99.90
1297;DHT22;641;48.492;9.184;2023-02-01T13:22:31;6.50;99.90
1297;DHT22;641;48.492;9.184;2023-02-01T13:25:11;6.50;99.90
1297;DHT22;641;48.492;9.184;2023-02-01T13:27:38;6.60;99.90
1297;DHT22;641;48.492;9.184;2023-02-01T13:30:23;6.20;99.90
1297;DHT22;641;48.492;9.184;2023-02-01T13:33:14;6.30;99.90
1297;DHT22;641;48.492;9.184;2023-02-01T13:39:00;6.20;99.90
1297;DHT22;641;48.492;9.184;2023-02-01T13:41:28;6.40;99.90
1297;DHT22;641;48.492;9.184;2023-02-01T13:43:59;6.50;99.90
1297;DHT22;641;48.492;9.184;2023-02-01T13:46:27;6.40;99.90
1297;DHT22;641;48.492;9.184;2023-02-01T13:49:01;6.50;99.90
1297;DHT22;641;48.492;9.184;2023-02-01T13:51:42;6.60;99.90
1297;DHT22;641;48.492;9.184;2023-02-01T13:54:26;6.50;99.90
1297;DHT22;641;48.492;9.184;2023-02-01T13:56:53;6.50;99.90
1297;DHT22;641;48.492;9.184;2023-02-01T13:59:59;6.50;99.90
1297;DHT22;641;48.492;9.184;2023-02-01T14:10:57;6.50;99.90
1297;DHT22;641;48.492;9.184;2023-02-01T14:26:44;6.40;99.90
1297;DHT22;641;48.492;9.184;2023-02-01T14:31:58;6.70;99.90
1297;DHT22;641;48.492;9.184;2023-02-01T14:42:47;6.60;99.90
1297;DHT22;641;48.492;9.184;2023-02-01T14:47:51;6.40;99.90
1297;DHT22;641;48.492;9.184;2023-02-01T14:50:31;6.30;99.90
1297;DHT22;641;48.492;9.184;2023-02-01T14:53:13;6.20;99.90
1297;DHT22;641;48.492;9.184;2023-02-01T14:55:52;6.30;99.90
1297;DHT22;641;48.492;9.184;2023-02-01T15:01:03;6.60;99.90
1297;DHT22;641;48.492;9.184;2023-02-01T15:03:47;6.50;99.90
1297;DHT22;641;48.492;9.184;2023-02-01T15:14:25;6.10;99.90
1297;DHT22;641;48.492;9.184;2023-02-01T15:16:51;6.20;99.90
1297;DHT22;641;48.492;9.184;2023-02-01T15:19:25;6.30;99.90
1297;DHT22;641;48.492;9.184;2023-02-01T15:21:53;6.10;99.90
1297;DHT22;641;48.492;9.184;2023-02-01T15:24:24;6.00;99.90
1297;DHT22;641;48.492;9.184;2023-02-01T15:26:51;6.00;99.90
1297;DHT22;641;48.492;9.184;2023-02-01T15:29:20;6.10;99.90
1297;DHT22;641;48.492;9.184;2023-02-01T15:31:50;6.20;99.90
1297;DHT22;641;48.492;9.184;2023-02-01T15:34:16;6.40;99.90
1297;DHT22;641;48.492;9.184;2023-02-01T15:36:43;6.50;99.90
1297;DHT22;641;48.492;9.184;2023-02-01T15:41:37;6.50;99.90
1297;DHT22;641;48.492;9.184;2023-02-01T15:44:16;6.50;99.90
1297;DHT22;641;48.492;9.184;2023-02-01T15:46:45;6.10;99.90
1297;DHT22;641;48.492;9.184;2023-02-01T15:49:28;6.10;99.90
1297;DHT22;641;48.492;9.184;2023-02-01T15:51:55;6.30;99.90
1297;DHT22;641;48.492;9.184;2023-02-01T15:54:28;6.20;99.90
1297;DHT22;641;48.492;9.184;2023-02-01T15:56:57;6.20;99.90
1297;DHT22;641;48.492;9.184;2023-02-01T15:59:29;6.30;99.90
1297;DHT22;641;48.492;9.184;2023-02-01T16:01:56;6.40;99.90
1297;DHT22;641;48.492;9.184;2023-02-01T16:04:24;6.40;99.90
1297;DHT22;641;48.492;9.184;2023-02-01T16:07:01;6.20;99.90
1297;DHT22;641;48.492;9.184;2023-02-01T16:09:54;6.20;99.90
1297;DHT22;641;48.492;9.184;2023-02-01T16:12:26;6.20;99.90
1297;DHT22;641;48.492;9.184;2023-02-01T16:14:53;6.20;99.90
1297;DHT22;641;48.492;9.184;2023-02-01T16:17:19;6.10;99.90
1297;DHT22;641;48.492;9.184;2023-02-01T16:19:44;6.30;99.90
1297;DHT22;641;48.492;9.184;2023-02-01T16:22:10;6.20;99.90
1297;DHT22;641;48.492;9.184;2023-02-01T16:24:35;6.20;99.90
1297;DHT22;641;48.492;9.184;2023-02-01T16:27:01;6.10;99.90
1297;DHT22;641;48.492;9.184;2023-02-01T16:29:28;6.10;99.90
1297;DHT22;641;48.492;9.184;2023-02-01T16:31:54;6.20;99.90
1297;DHT22;641;48.492;9.184;2023-02-01T16:34:19;6.50;99.90
1297;DHT22;641;48.492;9.184;2023-02-01T16:36:49;6.60;99.90
1297;DHT22;641;48.492;9.184;2023-02-01T16:39:17;6.50;99.90
1297;DHT22;641;48.492;9.184;2023-02-01T16:41:43;6.30;99.90
1297;DHT22;641;48.492;9.184;2023-02-01T16:51:42;6.20;99.90
1297;DHT22;641;48.492;9.184;2023-02-01T16:54:08;6.30;99.90
1297;DHT22;641;48.492;9.184;2023-02-01T16:56:34;6.30;99.90
1297;DHT22;641;48.492;9.184;2023-02-01T16:59:01;6.30;99.90
1297;DHT22;641;48.492;9.184;2023-02-01T17:01:27;6.20;99.90
1297;DHT22;641;48.492;9.184;2023-02-01T17:03:52;6.30;99.90
1297;DHT22;641;48.492;9.184;2023-02-01T17:06:21;6.20;99.90
1297;DHT22;641;48.492;9.184;2023-02-01T17:08:54;6.40;99.90
1297;DHT22;641;48.492;9.184;2023-02-01T17:11:20;6.20;99.90
1297;DHT22;641;48.492;9.184;2023-02-01T17:13:47;6.40;99.90
1297;DHT22;641;48.492;9.184;2023-02-01T17:18:48;6.10;99.90
1297;DHT22;641;48.492;9.184;2023-02-01T17:21:15;6.30;99.90
1297;DHT22;641;48.492;9.184;2023-02-01T17:23:41;6.30;99.90
1297;DHT22;641;48.492;9.184;2023-02-01T17:26:09;6.40;99.90
1297;DHT22;641;48.492;9.184;2023-02-01T17:28:35;6.30;99.90
1297;DHT22;641;48.492;9.184;2023-02-01T17:31:01;6.30;99.90
1297;DHT22;641;48.492;9.184;2023-02-01T17:33:32;6.20;99.90
1297;DHT22;641;48.492;9.184;2023-02-01T17:35:58;6.30;99.90
1297;DHT22;641;48.492;9.184;2023-02-01T17:38:25;6.30;99.90
1297;DHT22;641;48.492;9.184;2023-02-01T17:40:51;6.30;99.90
1297;DHT22;641;48.492;9.184;2023-02-01T17:43:22;6.40;99.90
1297;DHT22;641;48.492;9.184;2023-02-01T17:45:57;6.30;99.90
1297;DHT22;641;48.492;9.184;2023-02-01T17:48:23;6.20;99.90
1297;DHT22;641;48.492;9.184;2023-02-01T17:50:50;6.30;99.90
1297;DHT22;641;48.492;9.184;2023-02-01T17:53:19;6.50;99.90
1297;DHT22;641;48.492;9.184;2023-02-01T17:55:49;6.40;99.90
1297;DHT22;641;48.492;9.184;2023-02-01T17:58:15;6.40;99.90
1297;DHT22;641;48.492;9.184;2023-02-01T18:00:42;6.60;99.90
1297;DHT22;641;48.492;9.184;2023-02-01T18:03:25;6.60;99.90
1297;DHT22;641;48.492;9.184;2023-02-01T18:05:53;6.40;99.90
1297;DHT22;641;48.492;9.184;2023-02-01T18:08:20;6.20;99.90
1297;DHT22;641;48.492;9.184;2023-02-01T18:10:52;6.10;99.90
1297;DHT22;641;48.492;9.184;2023-02-01T18:13:19;6.20;99.90
1297;DHT22;641;48.492;9.184;2023-02-01T18:15:45;6.10;99.90
1297;DHT22;641;48.492;9.184;2023-02-01T18:18:12;6.20;99.90
1297;DHT22;641;48.492;9.184;2023-02-01T18:20:40;6.00;99.90
1297;DHT22;641;48.492;9.184;2023-02-01T18:23:16;6.00;99.90
1297;DHT22;641;48.492;9.184;2023-02-01T18:25:43;6.10;99.90
1297;DHT22;641;48.492;9.184;2023-02-01T18:28:10;6.20;99.90
1297;DHT22;641;48.492;9.184;2023-02-01T18:30:35;6.10;99.90
1297;DHT22;641;48.492;9.184;2023-02-01T18:33:01;6.10;99.90
1297;DHT22;641;48.492;9.184;2023-02-01T18:35:29;6.10;99.90
1297;DHT22;641;48.492;9.184;2023-02-01T18:37:55;6.00;99.90
1297;DHT22;641;48.492;9.184;2023-02-01T18:40:33;6.20;99.90
1297;DHT22;641;48.492;9.184;2023-02-01T18:43:00;6.30;99.90
1297;DHT22;641;48.492;9.184;2023-02-01T18:45:33;6.20;99.90
1297;DHT22;641;48.492;9.184;2023-02-01T18:47:59;6.10;99.90
1297;DHT22;641;48.492;9.184;2023-02-01T18:50:30;5.70;99.90
1297;DHT22;641;48.492;9.184;2023-02-01T18:52:58;5.90;99.90
1297;DHT22;641;48.492;9.184;2023-02-01T18:55:24;6.10;99.90
1297;DHT22;641;48.492;9.184;2023-02-01T18:57:51;5.70;99.90
1297;DHT22;641;48.492;9.184;2023-02-01T19:00:18;6.10;99.90
1297;DHT22;641;48.492;9.184;2023-02-01T19:02:44;5.90;99.90
1297;DHT22;641;48.492;9.184;2023-02-01T19:05:10;6.00;99.90
1297;DHT22;641;48.492;9.184;2023-02-01T19:07:37;6.30;99.90
1297;DHT22;641;48.492;9.184;2023-02-01T19:10:05;6.30;99.90
1297;DHT22;641;48.492;9.184;2023-02-01T19:12:32;6.00;99.90
1297;DHT22;641;48.492;9.184;2023-02-01T19:27:15;6.00;99.90
1297;DHT22;641;48.492;9.184;2023-02-01T19:29:40;6.10;99.90
1297;DHT22;641;48.492;9.184;2023-02-01T19:32:10;5.80;99.90
1297;DHT22;641;48.492;9.184;2023-02-01T19:34:36;5.80;99.90
1297;DHT22;641;48.492;9.184;2023-02-01T19:37:03;5.90;99.90
1297;DHT22;641;48.492;9.184;2023-02-01T19:39:29;6.10;99.90
1297;DHT22;641;48.492;9.184;2023-02-01T19:41:55;6.00;99.90
1297;DHT22;641;48.492;9.184;2023-02-01T19:44:22;6.10;99.90
1297;DHT22;641;48.492;9.184;2023-02-01T19:46:48;5.90;99.90
1297;DHT22;641;48.492;9.184;2023-02-01T19:49:13;5.80;99.90
1297;DHT22;641;48.492;9.184;2023-02-01T19:51:39;6.00;99.90
1297;DHT22;641;48.492;9.184;2023-02-01T19:54:06;5.90;99.90
1297;DHT22;641;48.492;9.184;2023-02-01T19:56:34;6.00;99.90
1297;DHT22;641;48.492;9.184;2023-02-01T19:59:00;6.00;99.90
1297;DHT22;641;48.492;9.184;2023-02-01T20:01:25;5.70;99.90
1297;DHT22;641;48.492;9.184;2023-02-01T20:03:51;5.60;99.90
1297;DHT22;641;48.492;9.184;2023-02-01T20:06:17;5.80;99.90
1297;DHT22;641;48.492;9.184;2023-02-01T20:08:43;5.80;99.90
1297;DHT22;641;48.492;9.184;2023-02-01T20:11:09;6.10;99.90
1297;DHT22;641;48.492;9.184;2023-02-01T20:13:34;5.90;99.90
1297;DHT22;641;48.492;9.184;2023-02-01T20:16:01;5.80;99.90
1297;DHT22;641;48.492;9.184;2023-02-01T20:18:27;5.90;99.90
1297;DHT22;641;48.492;9.184;2023-02-01T20:20:57;5.90;99.90
1297;DHT22;641;48.492;9.184;2023-02-01T20:23:24;5.80;99.90
1297;DHT22;641;48.492;9.184;2023-02-01T20:25:50;6.00;99.90
1297;DHT22;641;48.492;9.184;2023-02-01T20:28:16;5.70;99.90
1297;DHT22;641;48.492;9.184;2023-02-01T20:30:45;5.80;99.90
1297;DHT22;641;48.492;9.184;2023-02-01T20:33:11;6.00;99.90
1297;DHT22;641;48.492;9.184;2023-02-01T20:35:37;6.00;99.90
1297;DHT22;641;48.492;9.184;2023-02-01T20:38:07;7.30;99.90
1297;DHT22;641;48.492;9.184;2023-02-01T20:47:54;5.90;99.90
1297;DHT22;641;48.492;9.184;2023-02-01T20:50:19;5.70;99.90
1297;DHT22;641;48.492;9.184;2023-02-01T20:52:45;5.70;99.90
1297;DHT22;641;48.492;9.184;2023-02-01T20:55:11;5.60;99.90
1297;DHT22;641;48.492;9.184;2023-02-01T20:57:36;5.60;99.90
1297;DHT22;641;48.492;9.184;2023-02-01T21:00:03;5.70;99.90
1297;DHT22;641;48.492;9.184;2023-02-01T21:02:34;5.70;99.90
1297;DHT22;641;48.492;9.184;2023-02-01T21:05:00;6.00;99.90
1297;DHT22;641;48.492;9.184;2023-02-01T21:07:25;5.80;99.90
1297;DHT22;641;48.492;9.184;2023-02-01T21:09:51;5.70;99.90
1297;DHT22;641;48.492;9.184;2023-02-01T21:12:16;5.60;99.90
1297;DHT22;641;48.492;9.184;2023-02-01T21:14:42;5.60;99.90
1297;DHT22;641;48.492;9.184;2023-02-01T21:17:08;5.70;99.90
1297;DHT22;641;48.492;9.184;2023-02-01T21:19:33;5.80;99.90
1297;DHT22;641;48.492;9.184;2023-02-01T21:22:11;5.60;99.90
1297;DHT22;641;48.492;9.184;2023-02-01T21:24:37;5.60;99.90
1297;DHT22;641;48.492;9.184;2023-02-01T21:27:05;6.20;99.90
1297;DHT22;641;48.492;9.184;2023-02-01T21:29:31;5.80;99.90
1297;DHT22;641;48.492;9.184;2023-02-01T21:31:57;5.90;99.90
1297;DHT22;641;48.492;9.184;2023-02-01T21:34:23;5.90;99.90
1297;DHT22;641;48.492;9.184;2023-02-01T21:36:48;5.80;99.90
1297;DHT22;641;48.492;9.184;2023-02-01T21:39:14;5.80;99.90
1297;DHT22;641;48.492;9.184;2023-02-01T21:41:42;6.00;99.90
1297;DHT22;641;48.492;9.184;2023-02-01T21:44:26;5.90;99.90
1297;DHT22;641;48.492;9.184;2023-02-01T21:46:51;6.00;99.90
1297;DHT22;641;48.492;9.184;2023-02-01T21:49:20;5.70;99.90
1297;DHT22;641;48.492;9.184;2023-02-01T21:51:46;5.90;99.90
1297;DHT22;641;48.492;9.184;2023-02-01T21:54:12;6.00;99.90